Terminal Aerodrome Forecast
Issued by NWS

Home | Current Version | Previous Version | Text Only | Print | Product List | Glossary On
Versions: 1 2 3 4 5 6 7 8 9 10 11 12 13
110
FTUS44 KEPZ 281121
TAFDMN
TAF
KDMN 281121Z 2812/0112 26014G20KT P6SM SCT160 BKN230
     FM281500 26018G25KT P6SM FEW100 BKN140
     FM281800 26029G38KT P6SM BKN090
     FM282000 26032G40KT 6SM BLDU SCT090
     FM010100 28022G30KT P6SM FEW090
     FM010400 31014KT P6SM SKC=

USA.gov is the U.S. government's official web portal to all federal, state and local government web resources and services.